Terminal Aerodrome Forecast
Issued by NWS

Home | Current Version | Previous Version | Text Only | Print | Product List | Glossary On
Versions: 1 2 3 4 5 6 7 8 9 10 11 12 13 14 15 16 17 18 19 20 21 22
000
FTUS45 KVEF 291100
TAFHND
TAF
KHND 291138Z 2912/3012 18008KT P6SM FEW110 SCT150
     FM291700 12008KT P6SM FEW110 SCT150
     FM292300 24009KT P6SM SCT110 SCT250
     FM300600 17006KT P6SM FEW110 SCT250=

USA.gov is the U.S. government's official web portal to all federal, state and local government web resources and services.